sensor_id;sensor_type;location;lat;lon;timestamp;P1;durP1;ratioP1;P2;durP2;ratioP2
10244;SDS011;5167;52.164;10.530;2023-04-15T00:01:26;5.87;;;4.30;;
10244;SDS011;5167;52.164;10.530;2023-04-15T00:03:52;5.50;;;3.67;;
10244;SDS011;5167;52.164;10.530;2023-04-15T00:06:19;5.80;;;4.50;;
10244;SDS011;5167;52.164;10.530;2023-04-15T00:08:45;7.10;;;5.10;;
10244;SDS011;5167;52.164;10.530;2023-04-15T00:11:11;5.63;;;4.37;;
10244;SDS011;5167;52.164;10.530;2023-04-15T00:13:37;6.33;;;4.23;;
10244;SDS011;5167;52.164;10.530;2023-04-15T00:16:03;8.07;;;4.10;;
10244;SDS011;5167;52.164;10.530;2023-04-15T00:18:30;8.57;;;4.70;;
10244;SDS011;5167;52.164;10.530;2023-04-15T00:20:56;5.40;;;4.00;;
10244;SDS011;5167;52.164;10.530;2023-04-15T00:23:22;7.00;;;4.57;;
10244;SDS011;5167;52.164;10.530;2023-04-15T00:25:47;7.57;;;5.07;;
10244;SDS011;5167;52.164;10.530;2023-04-15T00:28:13;8.23;;;4.90;;
10244;SDS011;5167;52.164;10.530;2023-04-15T00:30:38;5.30;;;3.93;;
10244;SDS011;5167;52.164;10.530;2023-04-15T00:33:03;6.27;;;4.60;;
10244;SDS011;5167;52.164;10.530;2023-04-15T00:35:29;8.40;;;4.83;;
10244;SDS011;5167;52.164;10.530;2023-04-15T00:37:56;6.50;;;4.67;;
10244;SDS011;5167;52.164;10.530;2023-04-15T00:40:22;8.77;;;5.33;;
10244;SDS011;5167;52.164;10.530;2023-04-15T00:42:48;7.20;;;5.50;;
10244;SDS011;5167;52.164;10.530;2023-04-15T00:45:14;8.97;;;5.07;;
10244;SDS011;5167;52.164;10.530;2023-04-15T00:47:40;5.47;;;4.50;;
10244;SDS011;5167;52.164;10.530;2023-04-15T00:50:07;5.87;;;4.40;;
10244;SDS011;5167;52.164;10.530;2023-04-15T00:52:33;8.40;;;5.10;;
10244;SDS011;5167;52.164;10.530;2023-04-15T00:54:58;6.57;;;5.10;;
10244;SDS011;5167;52.164;10.530;2023-04-15T00:57:24;6.23;;;4.43;;
10244;SDS011;5167;52.164;10.530;2023-04-15T00:59:51;7.23;;;5.27;;
10244;SDS011;5167;52.164;10.530;2023-04-15T01:02:17;9.37;;;4.90;;
10244;SDS011;5167;52.164;10.530;2023-04-15T01:04:43;7.87;;;5.50;;
10244;SDS011;5167;52.164;10.530;2023-04-15T01:07:09;6.60;;;4.60;;
10244;SDS011;5167;52.164;10.530;2023-04-15T01:09:34;6.93;;;5.03;;
10244;SDS011;5167;52.164;10.530;2023-04-15T01:12:00;6.13;;;4.33;;
10244;SDS011;5167;52.164;10.530;2023-04-15T01:14:26;7.10;;;4.97;;
10244;SDS011;5167;52.164;10.530;2023-04-15T01:16:52;6.47;;;5.30;;
10244;SDS011;5167;52.164;10.530;2023-04-15T01:19:18;6.23;;;5.10;;
10244;SDS011;5167;52.164;10.530;2023-04-15T01:21:44;7.63;;;5.30;;
10244;SDS011;5167;52.164;10.530;2023-04-15T01:24:10;7.77;;;5.10;;
10244;SDS011;5167;52.164;10.530;2023-04-15T01:26:37;7.80;;;5.40;;
10244;SDS011;5167;52.164;10.530;2023-04-15T01:29:05;8.70;;;5.50;;
10244;SDS011;5167;52.164;10.530;2023-04-15T01:31:31;7.60;;;5.40;;
10244;SDS011;5167;52.164;10.530;2023-04-15T01:33:57;9.40;;;5.40;;
10244;SDS011;5167;52.164;10.530;2023-04-15T01:36:23;7.97;;;5.10;;
10244;SDS011;5167;52.164;10.530;2023-04-15T01:38:48;8.37;;;5.33;;
10244;SDS011;5167;52.164;10.530;2023-04-15T01:41:15;9.63;;;5.70;;
10244;SDS011;5167;52.164;10.530;2023-04-15T01:43:41;9.40;;;5.63;;
10244;SDS011;5167;52.164;10.530;2023-04-15T01:46:06;10.77;;;6.27;;
10244;SDS011;5167;52.164;10.530;2023-04-15T01:48:32;9.73;;;6.43;;
10244;SDS011;5167;52.164;10.530;2023-04-15T01:50:57;10.10;;;5.80;;
10244;SDS011;5167;52.164;10.530;2023-04-15T01:53:23;9.57;;;5.87;;
10244;SDS011;5167;52.164;10.530;2023-04-15T01:55:50;8.90;;;6.07;;
10244;SDS011;5167;52.164;10.530;2023-04-15T01:58:16;10.77;;;6.80;;
10244;SDS011;5167;52.164;10.530;2023-04-15T02:00:45;11.27;;;5.83;;
10244;SDS011;5167;52.164;10.530;2023-04-15T02:03:11;9.03;;;6.20;;
10244;SDS011;5167;52.164;10.530;2023-04-15T02:05:37;9.07;;;5.93;;
10244;SDS011;5167;52.164;10.530;2023-04-15T02:08:02;14.33;;;7.50;;
10244;SDS011;5167;52.164;10.530;2023-04-15T02:10:28;11.93;;;7.13;;
10244;SDS011;5167;52.164;10.530;2023-04-15T02:12:53;15.23;;;7.00;;
10244;SDS011;5167;52.164;10.530;2023-04-15T02:15:19;10.70;;;6.80;;
10244;SDS011;5167;52.164;10.530;2023-04-15T02:17:44;13.40;;;6.83;;
10244;SDS011;5167;52.164;10.530;2023-04-15T02:20:14;12.53;;;7.07;;
10244;SDS011;5167;52.164;10.530;2023-04-15T02:22:41;12.97;;;7.57;;
10244;SDS011;5167;52.164;10.530;2023-04-15T02:25:07;12.88;;;7.22;;
10244;SDS011;5167;52.164;10.530;2023-04-15T02:27:34;13.60;;;6.83;;
10244;SDS011;5167;52.164;10.530;2023-04-15T02:30:00;11.37;;;6.57;;
10244;SDS011;5167;52.164;10.530;2023-04-15T02:32:26;12.47;;;7.30;;
10244;SDS011;5167;52.164;10.530;2023-04-15T02:34:51;13.53;;;7.80;;
10244;SDS011;5167;52.164;10.530;2023-04-15T02:37:17;12.70;;;6.77;;
10244;SDS011;5167;52.164;10.530;2023-04-15T02:39:44;11.40;;;7.10;;
10244;SDS011;5167;52.164;10.530;2023-04-15T02:42:10;12.53;;;7.17;;
10244;SDS011;5167;52.164;10.530;2023-04-15T02:44:35;12.47;;;8.03;;
10244;SDS011;5167;52.164;10.530;2023-04-15T02:47:01;13.07;;;7.17;;
10244;SDS011;5167;52.164;10.530;2023-04-15T02:49:28;11.60;;;7.20;;
10244;SDS011;5167;52.164;10.530;2023-04-15T02:51:54;14.03;;;8.10;;
10244;SDS011;5167;52.164;10.530;2023-04-15T02:54:22;15.63;;;7.90;;
10244;SDS011;5167;52.164;10.530;2023-04-15T02:56:48;14.80;;;7.67;;
10244;SDS011;5167;52.164;10.530;2023-04-15T02:59:14;16.97;;;8.20;;
10244;SDS011;5167;52.164;10.530;2023-04-15T03:01:40;13.33;;;8.00;;
10244;SDS011;5167;52.164;10.530;2023-04-15T03:04:06;18.73;;;8.37;;
10244;SDS011;5167;52.164;10.530;2023-04-15T03:06:34;14.40;;;8.27;;
10244;SDS011;5167;52.164;10.530;2023-04-15T03:08:59;11.63;;;7.33;;
10244;SDS011;5167;52.164;10.530;2023-04-15T03:11:26;13.43;;;6.97;;
10244;SDS011;5167;52.164;10.530;2023-04-15T03:13:52;12.17;;;7.70;;
10244;SDS011;5167;52.164;10.530;2023-04-15T03:16:18;12.80;;;7.93;;
10244;SDS011;5167;52.164;10.530;2023-04-15T03:18:43;15.87;;;8.20;;
10244;SDS011;5167;52.164;10.530;2023-04-15T03:21:08;15.17;;;9.17;;
10244;SDS011;5167;52.164;10.530;2023-04-15T03:23:34;17.77;;;9.67;;
10244;SDS011;5167;52.164;10.530;2023-04-15T03:26:03;14.87;;;8.60;;
10244;SDS011;5167;52.164;10.530;2023-04-15T03:28:29;18.93;;;9.80;;
10244;SDS011;5167;52.164;10.530;2023-04-15T03:30:54;17.47;;;8.97;;
10244;SDS011;5167;52.164;10.530;2023-04-15T03:33:20;16.17;;;8.77;;
10244;SDS011;5167;52.164;10.530;2023-04-15T03:35:46;17.47;;;8.83;;
10244;SDS011;5167;52.164;10.530;2023-04-15T03:38:11;16.67;;;9.33;;
10244;SDS011;5167;52.164;10.530;2023-04-15T03:40:40;14.00;;;8.37;;
10244;SDS011;5167;52.164;10.530;2023-04-15T03:43:06;18.33;;;9.17;;
10244;SDS011;5167;52.164;10.530;2023-04-15T03:45:31;18.80;;;9.23;;
10244;SDS011;5167;52.164;10.530;2023-04-15T03:47:57;15.67;;;8.50;;
10244;SDS011;5167;52.164;10.530;2023-04-15T03:50:22;18.27;;;9.67;;
10244;SDS011;5167;52.164;10.530;2023-04-15T03:52:48;16.87;;;9.80;;
10244;SDS011;5167;52.164;10.530;2023-04-15T03:55:13;19.77;;;10.37;;
10244;SDS011;5167;52.164;10.530;2023-04-15T03:57:39;20.20;;;9.73;;
10244;SDS011;5167;52.164;10.530;2023-04-15T04:00:05;19.37;;;9.93;;
10244;SDS011;5167;52.164;10.530;2023-04-15T04:02:33;18.07;;;9.40;;
10244;SDS011;5167;52.164;10.530;2023-04-15T04:04:58;19.53;;;10.03;;
10244;SDS011;5167;52.164;10.530;2023-04-15T04:07:24;24.30;;;10.53;;
10244;SDS011;5167;52.164;10.530;2023-04-15T04:09:49;19.30;;;10.63;;
10244;SDS011;5167;52.164;10.530;2023-04-15T04:12:15;18.30;;;9.33;;
10244;SDS011;5167;52.164;10.530;2023-04-15T04:14:40;20.70;;;10.07;;
10244;SDS011;5167;52.164;10.530;2023-04-15T04:17:06;16.73;;;9.30;;
10244;SDS011;5167;52.164;10.530;2023-04-15T04:19:32;17.87;;;9.43;;
10244;SDS011;5167;52.164;10.530;2023-04-15T04:21:57;19.73;;;10.23;;
10244;SDS011;5167;52.164;10.530;2023-04-15T04:24:23;19.67;;;9.40;;
10244;SDS011;5167;52.164;10.530;2023-04-15T04:26:49;19.47;;;10.07;;
10244;SDS011;5167;52.164;10.530;2023-04-15T04:29:15;19.80;;;9.63;;
10244;SDS011;5167;52.164;10.530;2023-04-15T04:31:40;15.70;;;9.47;;
10244;SDS011;5167;52.164;10.530;2023-04-15T04:34:06;19.70;;;8.93;;
10244;SDS011;5167;52.164;10.530;2023-04-15T04:36:31;23.80;;;10.13;;
10244;SDS011;5167;52.164;10.530;2023-04-15T04:38:57;20.70;;;10.17;;
10244;SDS011;5167;52.164;10.530;2023-04-15T04:41:22;19.40;;;10.17;;
10244;SDS011;5167;52.164;10.530;2023-04-15T04:43:48;18.87;;;9.83;;
10244;SDS011;5167;52.164;10.530;2023-04-15T04:46:13;21.43;;;10.60;;
10244;SDS011;5167;52.164;10.530;2023-04-15T04:48:39;21.47;;;11.00;;
10244;SDS011;5167;52.164;10.530;2023-04-15T04:51:05;18.77;;;10.17;;
10244;SDS011;5167;52.164;10.530;2023-04-15T04:53:31;22.17;;;9.97;;
10244;SDS011;5167;52.164;10.530;2023-04-15T04:55:57;20.90;;;10.87;;
10244;SDS011;5167;52.164;10.530;2023-04-15T04:58:22;17.67;;;9.37;;
10244;SDS011;5167;52.164;10.530;2023-04-15T05:00:48;18.63;;;9.57;;
10244;SDS011;5167;52.164;10.530;2023-04-15T05:03:13;17.07;;;9.57;;
10244;SDS011;5167;52.164;10.530;2023-04-15T05:05:39;21.43;;;9.90;;
10244;SDS011;5167;52.164;10.530;2023-04-15T05:08:05;16.70;;;9.27;;
10244;SDS011;5167;52.164;10.530;2023-04-15T05:10:31;17.17;;;9.17;;
10244;SDS011;5167;52.164;10.530;2023-04-15T05:12:56;20.20;;;8.90;;
10244;SDS011;5167;52.164;10.530;2023-04-15T05:15:22;16.80;;;9.10;;
10244;SDS011;5167;52.164;10.530;2023-04-15T05:17:47;16.80;;;8.83;;
10244;SDS011;5167;52.164;10.530;2023-04-15T05:20:13;22.60;;;9.70;;
10244;SDS011;5167;52.164;10.530;2023-04-15T05:22:39;17.27;;;9.37;;
10244;SDS011;5167;52.164;10.530;2023-04-15T05:25:05;18.90;;;9.60;;
10244;SDS011;5167;52.164;10.530;2023-04-15T05:27:31;15.73;;;8.30;;
10244;SDS011;5167;52.164;10.530;2023-04-15T05:29:56;18.53;;;9.67;;
10244;SDS011;5167;52.164;10.530;2023-04-15T05:32:22;16.10;;;9.30;;
10244;SDS011;5167;52.164;10.530;2023-04-15T05:34:47;17.53;;;9.83;;
10244;SDS011;5167;52.164;10.530;2023-04-15T05:37:12;17.00;;;9.13;;
10244;SDS011;5167;52.164;10.530;2023-04-15T05:39:38;17.37;;;9.63;;
10244;SDS011;5167;52.164;10.530;2023-04-15T05:42:04;18.17;;;11.03;;
10244;SDS011;5167;52.164;10.530;2023-04-15T05:44:30;17.97;;;11.70;;
10244;SDS011;5167;52.164;10.530;2023-04-15T05:46:55;20.97;;;12.80;;
10244;SDS011;5167;52.164;10.530;2023-04-15T05:49:21;40.77;;;25.97;;
10244;SDS011;5167;52.164;10.530;2023-04-15T05:51:47;28.87;;;17.03;;
10244;SDS011;5167;52.164;10.530;2023-04-15T05:54:13;18.00;;;10.33;;
10244;SDS011;5167;52.164;10.530;2023-04-15T05:56:38;22.13;;;11.37;;
10244;SDS011;5167;52.164;10.530;2023-04-15T05:59:04;18.47;;;10.40;;
10244;SDS011;5167;52.164;10.530;2023-04-15T06:01:29;27.10;;;12.70;;
10244;SDS011;5167;52.164;10.530;2023-04-15T06:03:55;18.97;;;10.83;;
10244;SDS011;5167;52.164;10.530;2023-04-15T06:06:20;29.83;;;19.77;;
10244;SDS011;5167;52.164;10.530;2023-04-15T06:08:46;20.33;;;12.03;;
10244;SDS011;5167;52.164;10.530;2023-04-15T06:11:11;21.87;;;14.90;;
10244;SDS011;5167;52.164;10.530;2023-04-15T06:13:37;22.20;;;12.90;;
10244;SDS011;5167;52.164;10.530;2023-04-15T06:16:02;18.47;;;11.17;;
10244;SDS011;5167;52.164;10.530;2023-04-15T06:18:28;21.47;;;11.80;;
10244;SDS011;5167;52.164;10.530;2023-04-15T06:20:54;21.03;;;11.90;;
10244;SDS011;5167;52.164;10.530;2023-04-15T06:23:19;19.37;;;12.13;;
10244;SDS011;5167;52.164;10.530;2023-04-15T06:25:45;19.23;;;11.67;;
10244;SDS011;5167;52.164;10.530;2023-04-15T06:28:10;18.80;;;10.60;;
10244;SDS011;5167;52.164;10.530;2023-04-15T06:30:36;18.77;;;10.43;;
10244;SDS011;5167;52.164;10.530;2023-04-15T06:33:03;19.67;;;11.63;;
10244;SDS011;5167;52.164;10.530;2023-04-15T06:35:30;17.23;;;10.40;;
10244;SDS011;5167;52.164;10.530;2023-04-15T06:37:55;19.80;;;12.73;;
10244;SDS011;5167;52.164;10.530;2023-04-15T06:40:21;20.00;;;11.43;;
10244;SDS011;5167;52.164;10.530;2023-04-15T06:42:46;18.67;;;10.73;;
10244;SDS011;5167;52.164;10.530;2023-04-15T06:45:12;20.70;;;11.80;;
10244;SDS011;5167;52.164;10.530;2023-04-15T06:47:38;26.07;;;16.23;;
10244;SDS011;5167;52.164;10.530;2023-04-15T06:50:03;24.60;;;14.23;;
10244;SDS011;5167;52.164;10.530;2023-04-15T06:52:29;19.57;;;12.33;;
10244;SDS011;5167;52.164;10.530;2023-04-15T06:54:55;21.67;;;10.73;;
10244;SDS011;5167;52.164;10.530;2023-04-15T06:57:21;19.27;;;10.63;;
10244;SDS011;5167;52.164;10.530;2023-04-15T06:59:46;23.10;;;13.13;;
10244;SDS011;5167;52.164;10.530;2023-04-15T07:02:12;15.87;;;9.03;;
10244;SDS011;5167;52.164;10.530;2023-04-15T07:04:38;19.67;;;9.47;;
10244;SDS011;5167;52.164;10.530;2023-04-15T07:07:04;18.10;;;9.13;;
10244;SDS011;5167;52.164;10.530;2023-04-15T07:09:29;16.60;;;9.13;;
10244;SDS011;5167;52.164;10.530;2023-04-15T07:11:56;19.07;;;9.73;;
10244;SDS011;5167;52.164;10.530;2023-04-15T07:14:21;14.33;;;8.87;;
10244;SDS011;5167;52.164;10.530;2023-04-15T07:16:47;17.70;;;9.77;;
10244;SDS011;5167;52.164;10.530;2023-04-15T07:19:12;17.33;;;8.93;;
10244;SDS011;5167;52.164;10.530;2023-04-15T07:21:38;14.73;;;8.57;;
10244;SDS011;5167;52.164;10.530;2023-04-15T07:24:03;15.80;;;9.03;;
10244;SDS011;5167;52.164;10.530;2023-04-15T07:26:29;16.03;;;8.83;;
10244;SDS011;5167;52.164;10.530;2023-04-15T07:28:55;14.33;;;8.17;;
10244;SDS011;5167;52.164;10.530;2023-04-15T07:31:20;14.57;;;8.03;;
10244;SDS011;5167;52.164;10.530;2023-04-15T07:33:46;13.80;;;8.13;;
10244;SDS011;5167;52.164;10.530;2023-04-15T07:36:11;13.77;;;7.80;;
10244;SDS011;5167;52.164;10.530;2023-04-15T07:38:37;13.17;;;7.47;;
10244;SDS011;5167;52.164;10.530;2023-04-15T07:41:03;12.87;;;7.57;;
10244;SDS011;5167;52.164;10.530;2023-04-15T07:43:29;11.87;;;6.87;;
10244;SDS011;5167;52.164;10.530;2023-04-15T07:45:54;13.27;;;7.67;;
10244;SDS011;5167;52.164;10.530;2023-04-15T07:48:20;11.53;;;6.90;;
10244;SDS011;5167;52.164;10.530;2023-04-15T07:50:45;13.03;;;6.87;;
10244;SDS011;5167;52.164;10.530;2023-04-15T07:53:11;11.67;;;6.60;;
10244;SDS011;5167;52.164;10.530;2023-04-15T07:55:37;10.03;;;6.57;;
10244;SDS011;5167;52.164;10.530;2023-04-15T07:58:02;11.77;;;7.00;;
10244;SDS011;5167;52.164;10.530;2023-04-15T08:00:28;12.07;;;6.70;;
10244;SDS011;5167;52.164;10.530;2023-04-15T08:02:55;13.33;;;6.50;;
10244;SDS011;5167;52.164;10.530;2023-04-15T08:05:21;11.50;;;6.60;;
10244;SDS011;5167;52.164;10.530;2023-04-15T08:07:46;13.10;;;6.20;;
10244;SDS011;5167;52.164;10.530;2023-04-15T08:10:13;10.73;;;6.03;;
10244;SDS011;5167;52.164;10.530;2023-04-15T08:12:38;11.37;;;5.83;;
10244;SDS011;5167;52.164;10.530;2023-04-15T08:15:04;8.83;;;6.03;;
10244;SDS011;5167;52.164;10.530;2023-04-15T08:17:30;10.73;;;6.27;;
10244;SDS011;5167;52.164;10.530;2023-04-15T08:19:56;10.57;;;6.17;;
10244;SDS011;5167;52.164;10.530;2023-04-15T08:22:21;12.07;;;6.20;;
10244;SDS011;5167;52.164;10.530;2023-04-15T08:24:47;9.43;;;5.60;;
10244;SDS011;5167;52.164;10.530;2023-04-15T08:27:13;11.23;;;6.27;;
10244;SDS011;5167;52.164;10.530;2023-04-15T08:29:38;9.67;;;5.77;;
10244;SDS011;5167;52.164;10.530;2023-04-15T08:32:04;9.23;;;5.70;;
10244;SDS011;5167;52.164;10.530;2023-04-15T08:34:30;11.43;;;6.13;;
10244;SDS011;5167;52.164;10.530;2023-04-15T08:36:55;10.00;;;6.30;;
10244;SDS011;5167;52.164;10.530;2023-04-15T08:39:21;8.37;;;5.53;;
10244;SDS011;5167;52.164;10.530;2023-04-15T08:41:49;8.77;;;5.57;;
10244;SDS011;5167;52.164;10.530;2023-04-15T08:44:20;11.33;;;5.83;;
10244;SDS011;5167;52.164;10.530;2023-04-15T08:46:47;8.87;;;5.67;;
10244;SDS011;5167;52.164;10.530;2023-04-15T08:49:14;10.47;;;5.60;;
10244;SDS011;5167;52.164;10.530;2023-04-15T08:51:41;11.03;;;6.07;;
10244;SDS011;5167;52.164;10.530;2023-04-15T08:54:08;9.23;;;5.20;;
10244;SDS011;5167;52.164;10.530;2023-04-15T08:56:33;9.40;;;5.33;;
10244;SDS011;5167;52.164;10.530;2023-04-15T08:58:59;9.30;;;5.73;;
10244;SDS011;5167;52.164;10.530;2023-04-15T09:01:26;11.93;;;6.20;;
10244;SDS011;5167;52.164;10.530;2023-04-15T09:03:52;10.90;;;5.90;;
10244;SDS011;5167;52.164;10.530;2023-04-15T09:06:19;12.20;;;6.87;;
10244;SDS011;5167;52.164;10.530;2023-04-15T09:08:45;8.93;;;6.03;;
10244;SDS011;5167;52.164;10.530;2023-04-15T09:11:11;14.57;;;6.90;;
10244;SDS011;5167;52.164;10.530;2023-04-15T09:13:37;10.07;;;5.80;;
10244;SDS011;5167;52.164;10.530;2023-04-15T09:16:03;11.00;;;6.20;;
10244;SDS011;5167;52.164;10.530;2023-04-15T09:18:31;11.03;;;5.97;;
10244;SDS011;5167;52.164;10.530;2023-04-15T09:21:12;11.17;;;6.57;;
10244;SDS011;5167;52.164;10.530;2023-04-15T09:23:39;14.03;;;7.47;;
10244;SDS011;5167;52.164;10.530;2023-04-15T09:26:17;13.30;;;7.43;;
10244;SDS011;5167;52.164;10.530;2023-04-15T09:28:43;16.63;;;7.07;;
10244;SDS011;5167;52.164;10.530;2023-04-15T09:31:08;12.33;;;6.70;;
10244;SDS011;5167;52.164;10.530;2023-04-15T09:33:35;17.40;;;8.10;;
10244;SDS011;5167;52.164;10.530;2023-04-15T09:36:17;18.97;;;8.43;;
10244;SDS011;5167;52.164;10.530;2023-04-15T09:38:59;13.67;;;7.93;;
10244;SDS011;5167;52.164;10.530;2023-04-15T09:41:25;18.40;;;9.43;;
10244;SDS011;5167;52.164;10.530;2023-04-15T09:43:51;18.23;;;9.00;;
10244;SDS011;5167;52.164;10.530;2023-04-15T09:46:16;18.70;;;9.27;;
10244;SDS011;5167;52.164;10.530;2023-04-15T09:48:42;14.90;;;8.90;;
10244;SDS011;5167;52.164;10.530;2023-04-15T09:51:08;16.03;;;8.83;;
10244;SDS011;5167;52.164;10.530;2023-04-15T09:53:34;20.73;;;10.10;;
10244;SDS011;5167;52.164;10.530;2023-04-15T09:56:01;27.03;;;11.90;;
10244;SDS011;5167;52.164;10.530;2023-04-15T09:58:27;23.30;;;11.43;;
10244;SDS011;5167;52.164;10.530;2023-04-15T10:00:54;26.87;;;11.53;;
10244;SDS011;5167;52.164;10.530;2023-04-15T10:03:22;23.33;;;13.03;;
10244;SDS011;5167;52.164;10.530;2023-04-15T10:05:50;21.93;;;11.13;;
10244;SDS011;5167;52.164;10.530;2023-04-15T10:08:17;25.27;;;12.23;;
10244;SDS011;5167;52.164;10.530;2023-04-15T10:10:45;28.90;;;13.33;;
10244;SDS011;5167;52.164;10.530;2023-04-15T10:13:13;23.43;;;11.30;;
10244;SDS011;5167;52.164;10.530;2023-04-15T10:15:41;26.50;;;12.27;;
10244;SDS011;5167;52.164;10.530;2023-04-15T10:18:09;28.00;;;13.33;;
10244;SDS011;5167;52.164;10.530;2023-04-15T10:20:36;35.37;;;13.50;;
10244;SDS011;5167;52.164;10.530;2023-04-15T10:23:02;29.97;;;13.80;;
10244;SDS011;5167;52.164;10.530;2023-04-15T10:25:28;35.50;;;15.77;;
10244;SDS011;5167;52.164;10.530;2023-04-15T10:27:55;37.23;;;16.27;;
10244;SDS011;5167;52.164;10.530;2023-04-15T10:30:21;37.13;;;16.70;;
10244;SDS011;5167;52.164;10.530;2023-04-15T10:32:47;37.50;;;15.90;;
10244;SDS011;5167;52.164;10.530;2023-04-15T10:35:13;35.67;;;15.70;;
10244;SDS011;5167;52.164;10.530;2023-04-15T10:37:40;38.43;;;16.40;;
10244;SDS011;5167;52.164;10.530;2023-04-15T10:42:58;36.80;;;16.67;;
10244;SDS011;5167;52.164;10.530;2023-04-15T10:45:46;32.43;;;16.23;;
10244;SDS011;5167;52.164;10.530;2023-04-15T10:48:12;33.90;;;16.10;;
10244;SDS011;5167;52.164;10.530;2023-04-15T10:50:40;32.40;;;14.63;;
10244;SDS011;5167;52.164;10.530;2023-04-15T10:53:30;29.77;;;14.60;;
10244;SDS011;5167;52.164;10.530;2023-04-15T10:55:56;34.93;;;16.23;;
10244;SDS011;5167;52.164;10.530;2023-04-15T10:58:22;27.20;;;14.77;;
10244;SDS011;5167;52.164;10.530;2023-04-15T11:00:49;32.45;;;15.65;;
10244;SDS011;5167;52.164;10.530;2023-04-15T11:03:37;33.63;;;15.80;;
10244;SDS011;5167;52.164;10.530;2023-04-15T11:06:05;35.03;;;16.13;;
10244;SDS011;5167;52.164;10.530;2023-04-15T11:11:20;34.78;;;16.02;;
10244;SDS011;5167;52.164;10.530;2023-04-15T11:13:49;35.33;;;16.67;;
10244;SDS011;5167;52.164;10.530;2023-04-15T11:16:16;33.23;;;15.93;;
10244;SDS011;5167;52.164;10.530;2023-04-15T11:18:42;33.70;;;17.00;;
10244;SDS011;5167;52.164;10.530;2023-04-15T11:21:18;35.03;;;16.47;;
10244;SDS011;5167;52.164;10.530;2023-04-15T11:23:48;35.70;;;16.97;;
10244;SDS011;5167;52.164;10.530;2023-04-15T11:26:14;34.67;;;16.03;;
10244;SDS011;5167;52.164;10.530;2023-04-15T11:28:41;32.10;;;15.95;;
10244;SDS011;5167;52.164;10.530;2023-04-15T11:31:15;33.88;;;15.75;;
10244;SDS011;5167;52.164;10.530;2023-04-15T11:33:45;36.27;;;17.93;;
10244;SDS011;5167;52.164;10.530;2023-04-15T11:36:17;38.97;;;16.47;;
10244;SDS011;5167;52.164;10.530;2023-04-15T11:38:43;35.20;;;16.52;;
10244;SDS011;5167;52.164;10.530;2023-04-15T11:41:11;29.73;;;15.63;;
10244;SDS011;5167;52.164;10.530;2023-04-15T11:43:36;37.83;;;16.70;;
10244;SDS011;5167;52.164;10.530;2023-04-15T11:46:02;34.53;;;16.35;;
10244;SDS011;5167;52.164;10.530;2023-04-15T11:48:29;37.50;;;16.87;;
10244;SDS011;5167;52.164;10.530;2023-04-15T11:50:57;40.63;;;16.83;;
10244;SDS011;5167;52.164;10.530;2023-04-15T11:56:19;39.33;;;18.08;;
10244;SDS011;5167;52.164;10.530;2023-04-15T11:58:46;36.28;;;16.67;;
10244;SDS011;5167;52.164;10.530;2023-04-15T12:01:13;43.75;;;18.85;;
10244;SDS011;5167;52.164;10.530;2023-04-15T12:03:42;46.60;;;20.40;;
10244;SDS011;5167;52.164;10.530;2023-04-15T12:13:52;47.22;;;19.92;;
10244;SDS011;5167;52.164;10.530;2023-04-15T12:16:18;44.03;;;20.20;;
10244;SDS011;5167;52.164;10.530;2023-04-15T12:18:45;47.00;;;20.75;;
10244;SDS011;5167;52.164;10.530;2023-04-15T12:21:12;47.55;;;19.25;;
10244;SDS011;5167;52.164;10.530;2023-04-15T12:23:38;41.42;;;19.70;;
10244;SDS011;5167;52.164;10.530;2023-04-15T12:26:11;48.33;;;20.27;;
10244;SDS011;5167;52.164;10.530;2023-04-15T12:28:39;46.17;;;21.33;;
10244;SDS011;5167;52.164;10.530;2023-04-15T12:31:06;54.90;;;22.65;;
10244;SDS011;5167;52.164;10.530;2023-04-15T12:33:33;45.92;;;20.60;;
10244;SDS011;5167;52.164;10.530;2023-04-15T12:35:59;46.53;;;21.63;;
10244;SDS011;5167;52.164;10.530;2023-04-15T12:38:25;50.25;;;21.70;;
10244;SDS011;5167;52.164;10.530;2023-04-15T12:40:50;49.47;;;23.55;;
10244;SDS011;5167;52.164;10.530;2023-04-15T12:43:16;48.70;;;21.23;;
10244;SDS011;5167;52.164;10.530;2023-04-15T12:45:41;46.88;;;20.13;;
10244;SDS011;5167;52.164;10.530;2023-04-15T12:48:07;53.42;;;22.00;;
10244;SDS011;5167;52.164;10.530;2023-04-15T12:50:33;51.47;;;21.02;;
10244;SDS011;5167;52.164;10.530;2023-04-15T12:52:59;50.75;;;21.48;;
10244;SDS011;5167;52.164;10.530;2023-04-15T12:55:25;48.17;;;21.02;;
10244;SDS011;5167;52.164;10.530;2023-04-15T12:57:51;49.33;;;21.85;;
10244;SDS011;5167;52.164;10.530;2023-04-15T13:00:16;52.28;;;20.83;;
10244;SDS011;5167;52.164;10.530;2023-04-15T13:02:42;48.00;;;21.20;;
10244;SDS011;5167;52.164;10.530;2023-04-15T13:05:08;50.38;;;20.95;;
10244;SDS011;5167;52.164;10.530;2023-04-15T13:07:34;44.78;;;20.17;;
10244;SDS011;5167;52.164;10.530;2023-04-15T13:09:59;48.25;;;21.15;;
10244;SDS011;5167;52.164;10.530;2023-04-15T13:12:25;55.83;;;24.02;;
10244;SDS011;5167;52.164;10.530;2023-04-15T13:14:51;47.28;;;21.23;;
10244;SDS011;5167;52.164;10.530;2023-04-15T13:17:16;198.13;;;86.00;;
10244;SDS011;5167;52.164;10.530;2023-04-15T13:19:44;78.22;;;35.72;;
10244;SDS011;5167;52.164;10.530;2023-04-15T13:22:10;54.67;;;23.20;;
10244;SDS011;5167;52.164;10.530;2023-04-15T13:24:36;43.17;;;19.80;;
10244;SDS011;5167;52.164;10.530;2023-04-15T13:27:03;47.13;;;20.58;;
10244;SDS011;5167;52.164;10.530;2023-04-15T13:29:28;89.97;;;39.45;;
10244;SDS011;5167;52.164;10.530;2023-04-15T13:31:54;67.72;;;32.05;;
10244;SDS011;5167;52.164;10.530;2023-04-15T13:34:20;51.75;;;23.95;;
10244;SDS011;5167;52.164;10.530;2023-04-15T13:36:46;41.75;;;20.63;;
10244;SDS011;5167;52.164;10.530;2023-04-15T13:39:12;43.13;;;20.60;;
10244;SDS011;5167;52.164;10.530;2023-04-15T13:41:37;47.03;;;21.48;;
10244;SDS011;5167;52.164;10.530;2023-04-15T13:44:03;53.20;;;21.10;;
10244;SDS011;5167;52.164;10.530;2023-04-15T13:46:29;51.95;;;21.85;;
10244;SDS011;5167;52.164;10.530;2023-04-15T13:48:55;47.35;;;22.13;;
10244;SDS011;5167;52.164;10.530;2023-04-15T13:51:20;48.53;;;22.52;;
10244;SDS011;5167;52.164;10.530;2023-04-15T13:53:46;48.75;;;21.38;;
10244;SDS011;5167;52.164;10.530;2023-04-15T13:56:12;46.35;;;20.92;;
10244;SDS011;5167;52.164;10.530;2023-04-15T13:58:37;45.72;;;21.42;;
10244;SDS011;5167;52.164;10.530;2023-04-15T14:01:04;43.97;;;20.55;;
10244;SDS011;5167;52.164;10.530;2023-04-15T14:03:35;43.42;;;21.10;;
10244;SDS011;5167;52.164;10.530;2023-04-15T14:06:00;44.88;;;20.60;;
10244;SDS011;5167;52.164;10.530;2023-04-15T14:08:26;40.13;;;19.65;;
10244;SDS011;5167;52.164;10.530;2023-04-15T14:10:51;41.97;;;19.33;;
10244;SDS011;5167;52.164;10.530;2023-04-15T14:13:17;45.92;;;21.10;;
10244;SDS011;5167;52.164;10.530;2023-04-15T14:15:43;44.13;;;20.50;;
10244;SDS011;5167;52.164;10.530;2023-04-15T14:18:09;44.60;;;20.20;;
10244;SDS011;5167;52.164;10.530;2023-04-15T14:20:34;50.75;;;21.40;;
10244;SDS011;5167;52.164;10.530;2023-04-15T14:23:00;42.28;;;22.10;;
10244;SDS011;5167;52.164;10.530;2023-04-15T14:25:25;41.60;;;21.92;;
10244;SDS011;5167;52.164;10.530;2023-04-15T14:27:51;46.92;;;22.48;;
10244;SDS011;5167;52.164;10.530;2023-04-15T14:30:17;49.10;;;22.23;;
10244;SDS011;5167;52.164;10.530;2023-04-15T14:32:42;42.58;;;23.02;;
10244;SDS011;5167;52.164;10.530;2023-04-15T14:35:08;45.13;;;23.52;;
10244;SDS011;5167;52.164;10.530;2023-04-15T14:37:33;48.17;;;22.63;;
10244;SDS011;5167;52.164;10.530;2023-04-15T14:39:59;42.97;;;22.95;;
10244;SDS011;5167;52.164;10.530;2023-04-15T14:42:24;51.85;;;24.20;;